Time;durP1;ratioP1;P1;durP2;ratioP2;P2;SDS_P1;SDS_P2;PMS_P1;PMS_P2;Temp;Humidity;BMP_temperature;BMP_pressure;BME280_temperature;BME280_humidity;BME280_pressure;Samples;Min_cycle;Max_cycle;Signal;HPM_P1;HPM_P2
2023/11/17 06:54:36;;;;;;;6.70;3.90;;;;;;;19.32;54.25;97648.16;105710;1254;68126;-47
2023/11/17 06:57:03;;;;;;;9.10;4.70;;;;;;;19.33;54.21;97646.77;105640;1254;72680;-45
2023/11/17 06:59:30;;;;;;;7.60;4.30;;;;;;;19.34;54.23;97641.30;105612;1254;61167;-46
2023/11/17 07:01:56;;;;;;;6.00;4.80;;;;;;;19.35;54.27;97637.83;105613;1255;61292;-46
2023/11/17 07:04:23;;;;;;;7.10;4.20;;;;;;;19.36;54.37;97636.62;105551;1255;74674;-47
2023/11/17 07:06:50;;;;;;;8.60;4.40;;;;;;;19.37;54.31;97631.23;105627;1257;67128;-49
2023/11/17 07:09:17;;;;;;;7.10;4.60;;;;;;;19.37;54.27;97624.48;105634;1254;71780;-47
2023/11/17 07:11:44;;;;;;;8.70;4.40;;;;;;;19.38;54.45;97624.27;105526;1259;61266;-47
2023/11/17 07:14:12;;;;;;;7.90;4.90;;;;;;;19.38;54.23;97626.14;105856;1254;61799;-46
2023/11/17 07:16:41;;;;;;;5.30;4.00;;;;;;;19.39;54.12;97628.48;105564;1257;74671;-45
2023/11/17 07:19:15;;;;;;;6.80;4.30;;;;;;;19.40;54.13;97625.09;105507;1257;65965;-46
2023/11/17 07:21:43;;;;;;;5.70;4.40;;;;;;;19.40;54.30;97628.35;105684;1254;72662;-44
2023/11/17 07:24:11;;;;;;;7.00;4.30;;;;;;;19.41;54.44;97623.23;105482;1254;61310;-48
2023/11/17 07:26:38;;;;;;;8.40;4.30;;;;;;;19.42;54.46;97622.56;105726;1253;61319;-45
2023/11/17 07:29:05;;;;;;;6.20;4.10;;;;;;;19.43;54.52;97613.29;105654;1254;75104;-48
2023/11/17 07:31:37;;;;;;;5.30;3.80;;;;;;;19.44;54.63;97612.13;105445;1259;66117;-48
2023/11/17 07:34:05;;;;;;;4.40;4.00;;;;;;;19.45;54.57;97614.41;105555;1254;72792;-46
2023/11/17 07:36:39;;;;;;;7.70;3.90;;;;;;;19.47;54.84;97613.18;105644;1257;61180;-45
2023/11/17 07:39:06;;;;;;;5.90;3.60;;;;;;;19.48;54.55;97613.83;105682;1254;61234;-46
2023/11/17 07:41:33;;;;;;;5.50;3.70;;;;;;;19.49;54.60;97612.16;105547;1254;74644;-46
2023/11/17 07:44:01;;;;;;;4.10;3.70;;;;;;;19.50;54.71;97607.52;105687;1254;65889;-47
2023/11/17 07:46:28;;;;;;;5.50;3.60;;;;;;;19.51;54.55;97599.48;108138;1253;73790;-46
2023/11/17 07:48:55;;;;;;;4.90;3.70;;;;;;;19.52;54.64;97595.00;105596;1257;62055;-48
2023/11/17 07:51:23;;;;;;;5.30;3.70;;;;;;;19.54;54.53;97591.38;105623;1254;61229;-47
2023/11/17 07:53:49;;;;;;;5.60;3.70;;;;;;;19.55;54.45;97591.19;105751;1257;74614;-45
2023/11/17 07:56:16;;;;;;;5.70;3.80;;;;;;;19.56;54.38;97595.16;105747;1257;65859;-46
2023/11/17 08:04:05;;;;;;;4.20;3.60;;;;;;;19.59;54.29;97598.79;105635;1257;61233;-49
2023/11/17 08:06:43;;;;;;;4.90;3.20;;;;;;;19.60;54.34;97604.87;105313;1255;61372;-48
2023/11/17 08:09:10;;;;;;;4.80;3.50;;;;;;;19.60;53.99;97606.25;105552;1254;74531;-44
2023/11/17 08:11:38;;;;;;;6.40;3.90;;;;;;;19.61;53.83;97608.98;105537;1257;66465;-46
2023/11/17 08:14:05;;;;;;;4.10;3.70;;;;;;;19.60;53.26;97608.44;105691;1254;72395;-46
2023/11/17 08:16:33;;;;;;;7.50;3.90;;;;;;;19.61;52.92;97609.61;107269;1253;61260;-48
2023/11/17 08:19:03;;;;;;;5.80;3.80;;;;;;;19.61;52.82;97605.11;109436;1253;59056;-47
2023/11/17 08:21:48;;;;;;;4.10;3.70;;;;;;;19.60;52.89;97600.13;109419;1253;72940;-46
2023/11/17 08:24:19;;;;;;;4.90;3.80;;;;;;;19.61;52.71;97601.94;109421;1253;66049;-45
2023/11/17 08:26:46;;;;;;;6.10;3.70;;;;;;;19.61;52.90;97602.24;109378;1254;72371;-45
2023/11/17 08:29:13;;;;;;;4.00;3.50;;;;;;;19.63;52.84;97602.20;108986;1252;59352;-48
2023/11/17 08:31:40;;;;;;;5.80;3.60;;;;;;;19.65;52.84;97605.80;105686;1254;61278;-46
2023/11/17 08:34:07;;;;;;;7.30;3.40;;;;;;;19.66;52.62;97604.76;105598;1253;74724;-46
2023/11/17 08:36:34;;;;;;;6.80;3.70;;;;;;;19.66;52.70;97602.59;105674;1257;65962;-45
2023/11/17 08:39:02;;;;;;;6.60;3.60;;;;;;;19.67;52.40;97605.00;105638;1257;72618;-46
2023/11/17 08:41:29;;;;;;;7.90;3.70;;;;;;;19.66;52.42;97604.84;105613;1258;61269;-46
2023/11/17 08:43:57;;;;;;;5.30;3.40;;;;;;;19.66;52.39;97601.48;105649;1257;61257;-47
2023/11/17 08:46:26;;;;;;;4.20;3.50;;;;;;;19.67;52.55;97598.85;105621;1257;75758;-46
2023/11/17 08:48:53;;;;;;;5.90;3.00;;;;;;;19.66;52.29;97596.38;105657;1257;66907;-47
2023/11/17 08:51:21;;;;;;;4.80;3.70;;;;;;;19.66;52.44;97599.16;105663;1254;73538;-46
2023/11/17 08:53:50;;;;;;;6.40;3.80;;;;;;;19.65;52.66;97596.59;105382;1254;61365;-45
2023/11/17 08:56:17;;;;;;;5.50;3.40;;;;;;;19.66;52.88;97599.31;105575;1259;61266;-38
2023/11/17 08:58:44;;;;;;;6.80;3.90;;;;;;;19.67;52.91;97595.77;105588;1253;75640;-36
2023/11/17 09:01:12;;;;;;;10.00;3.70;;;;;;;19.70;53.67;97596.44;105634;1257;65180;-38
2023/11/17 09:03:42;;;;;;;5.50;3.60;;;;;;;19.73;53.62;97593.23;106716;1254;72617;-40
2023/11/17 09:06:09;;;;;;;5.90;3.50;;;;;;;19.76;53.33;97592.35;105170;1254;61129;-38
2023/11/17 09:08:35;;;;;;;5.00;3.20;;;;;;;19.78;53.30;97593.17;105621;1253;61192;-38
2023/11/17 09:11:03;;;;;;;4.90;3.50;;;;;;;19.80;53.18;97594.70;105705;1255;74460;-38
2023/11/17 09:13:29;;;;;;;3.70;3.20;;;;;;;19.82;53.17;97597.45;105571;1255;66244;-37
2023/11/17 09:15:56;;;;;;;4.70;3.40;;;;;;;19.84;53.10;97594.09;106274;1254;72395;-38
2023/11/17 09:18:23;;;;;;;6.10;3.60;;;;;;;19.85;53.04;97592.23;105630;1257;61301;-37
2023/11/17 09:20:56;;;;;;;5.00;3.40;;;;;;;19.87;53.03;97589.95;105663;1257;61241;-39
2023/11/17 09:23:23;;;;;;;4.30;3.80;;;;;;;19.88;53.07;97589.19;105622;1257;75222;-37
2023/11/17 09:25:49;;;;;;;4.00;3.20;;;;;;;19.89;53.12;97586.00;105751;1257;65470;-40
2023/11/17 09:28:16;;;;;;;4.50;3.60;;;;;;;19.90;53.01;97580.29;105549;1254;72587;-38
2023/11/17 09:30:43;;;;;;;10.20;3.80;;;;;;;19.90;53.12;97581.23;105496;1257;61260;-38
2023/11/17 09:33:14;;;;;;;6.10;3.20;;;;;;;19.90;53.15;97582.23;105447;1257;192673;-40
2023/11/17 09:35:41;;;;;;;5.90;3.40;;;;;;;19.91;53.48;97576.41;105638;1256;75402;-39
2023/11/17 09:38:11;;;;;;;6.30;3.20;;;;;;;19.92;53.69;97572.80;105768;1256;67091;-37
2023/11/17 09:40:51;;;;;;;4.20;3.60;;;;;;;19.94;53.70;97564.05;105392;1254;71096;-38
2023/11/17 09:43:24;;;;;;;4.80;3.00;;;;;;;19.95;53.93;97560.88;105393;1257;61268;-38
2023/11/17 09:45:59;;;;;;;4.90;3.30;;;;;;;19.97;54.05;97562.10;105361;1254;61264;-39
2023/11/17 09:48:26;;;;;;;8.20;3.30;;;;;;;19.98;54.13;97559.46;105669;1254;75636;-38
2023/11/17 09:50:53;;;;;;;4.20;2.80;;;;;;;19.99;54.27;97557.55;105411;1260;66695;-38
2023/11/17 09:53:19;;;;;;;4.20;3.20;;;;;;;20.01;54.19;97553.77;105476;1254;73681;-39
2023/11/17 09:55:48;;;;;;;3.90;3.00;;;;;;;20.03;54.26;97551.02;105405;1260;61157;-37
2023/11/17 09:58:15;;;;;;;3.90;2.90;;;;;;;20.04;54.25;97554.77;105684;1254;61447;-39
2023/11/17 10:00:45;;;;;;;3.60;2.90;;;;;;;20.05;54.31;97550.98;105698;1254;74412;-39
2023/11/17 10:03:13;;;;;;;3.50;2.80;;;;;;;20.07;54.53;97551.86;105682;1254;67264;-40
2023/11/17 10:05:41;;;;;;;3.30;3.00;;;;;;;20.08;54.56;97548.15;105638;1254;71880;-41
2023/11/17 10:08:15;;;;;;;3.60;2.70;;;;;;;20.10;54.36;97545.23;105697;1257;61256;-39
2023/11/17 10:10:45;;;;;;;4.00;3.10;;;;;;;20.10;54.44;97542.91;105522;1254;61340;-39
2023/11/17 10:13:13;;;;;;;4.30;2.70;;;;;;;20.12;54.48;97544.25;107778;1253;75368;-40
2023/11/17 10:15:50;;;;;;;3.90;2.90;;;;;;;20.13;54.38;97539.01;105643;1256;64849;-41
2023/11/17 10:18:26;;;;;;;5.20;3.10;;;;;;;20.14;54.53;97536.20;105649;1254;72559;-37
2023/11/17 10:20:54;;;;;;;3.70;3.10;;;;;;;20.16;54.55;97538.27;105743;1257;61472;-40
2023/11/17 10:23:20;;;;;;;3.60;2.90;;;;;;;20.17;54.50;97538.27;105651;1253;61330;-39
2023/11/17 10:25:54;;;;;;;4.30;3.00;;;;;;;20.18;54.35;97539.79;105587;1254;75642;-41
2023/11/17 10:28:21;;;;;;;4.30;2.80;;;;;;;20.18;54.37;97542.73;108533;1253;67598;-39
2023/11/17 10:30:50;;;;;;;6.80;3.00;;;;;;;20.19;54.37;97537.62;105598;1254;73252;-41
2023/11/17 10:33:44;;;;;;;4.80;2.70;;;;;;;20.20;54.28;97539.27;105705;1256;61959;-40
2023/11/17 10:36:12;;;;;;;4.20;3.00;;;;;;;20.20;54.21;97539.20;105737;1253;61262;-41
2023/11/17 10:38:47;;;;;;;9.10;3.10;;;;;;;20.22;54.23;97542.50;105660;1254;75798;-42
2023/11/17 10:41:30;;;;;;;6.40;3.10;;;;;;;20.22;53.94;97538.57;105645;1256;67352;-42
2023/11/17 10:44:01;;;;;;;3.60;2.90;;;;;;;20.23;53.84;97538.34;105622;1253;73491;-42
2023/11/17 10:46:29;;;;;;;4.10;3.00;;;;;;;20.23;53.81;97536.16;105596;1253;61250;-42
2023/11/17 10:49:00;;;;;;;4.70;2.80;;;;;;;20.23;53.80;97536.16;109453;1254;59879;-43
2023/11/17 10:51:27;;;;;;;4.60;3.10;;;;;;;20.24;53.80;97533.69;107742;1254;74464;-43
2023/11/17 10:54:04;;;;;;;4.50;3.00;;;;;;;20.25;53.81;97532.78;107987;1253;65586;-40
2023/11/17 10:56:32;;;;;;;4.60;3.00;;;;;;;20.25;53.76;97531.70;109358;1253;74435;-41
2023/11/17 10:59:00;;;;;;;4.30;2.90;;;;;;;20.27;53.74;97532.42;106366;1254;61349;-41
2023/11/17 11:01:30;;;;;;;4.30;3.10;;;;;;;20.27;53.57;97527.22;107588;1253;61166;-41
2023/11/17 11:04:00;;;;;;;3.40;2.60;;;;;;;20.29;53.72;97524.84;105612;1254;75773;-41
2023/11/17 11:06:27;;;;;;;4.00;2.70;;;;;;;20.30;53.55;97528.35;105620;1257;65022;-40
2023/11/17 11:08:55;;;;;;;4.80;2.80;;;;;;;20.30;53.43;97524.62;105477;1259;73391;-41
2023/11/17 11:11:26;;;;;;;3.90;2.60;;;;;;;20.30;53.53;97521.83;105673;1256;61355;-42
2023/11/17 11:13:53;;;;;;;4.10;3.00;;;;;;;20.31;53.52;97524.02;105631;1254;61252;-42
2023/11/17 11:16:20;;;;;;;3.40;2.60;;;;;;;20.31;53.66;97520.43;105423;1257;75432;-41
2023/11/17 11:18:47;;;;;;;3.90;2.70;;;;;;;20.31;53.71;97518.02;109465;1253;66956;-43
2023/11/17 11:21:17;;;;;;;5.00;3.00;;;;;;;20.31;53.69;97515.08;105552;1254;73763;-42
2023/11/17 11:23:48;;;;;;;4.50;2.60;;;;;;;20.33;53.75;97514.17;105807;1254;61285;-41
2023/11/17 11:26:16;;;;;;;5.20;3.20;;;;;;;20.33;53.91;97508.44;105715;1254;61368;-42
2023/11/17 11:28:44;;;;;;;3.60;2.70;;;;;;;20.33;53.70;97508.20;107779;1253;74718;-41
2023/11/17 11:31:12;;;;;;;3.10;2.50;;;;;;;20.34;53.83;97505.19;105828;1257;64765;-41
2023/11/17 11:33:39;;;;;;;3.30;2.70;;;;;;;20.35;53.89;97501.31;105764;1253;73614;-41
2023/11/17 11:36:10;;;;;;;3.50;2.50;;;;;;;20.35;53.94;97499.76;105495;1254;61266;-41
2023/11/17 11:38:41;;;;;;;4.80;2.80;;;;;;;20.36;53.79;97501.25;105486;1253;61342;-40
2023/11/17 11:41:11;;;;;;;4.60;3.20;;;;;;;20.37;53.90;97496.91;105618;1254;74993;-39
2023/11/17 11:43:41;;;;;;;5.10;2.80;;;;;;;20.36;53.68;97491.86;105729;1257;66923;-40
2023/11/17 11:46:10;;;;;;;4.30;2.60;;;;;;;20.36;53.86;97492.95;105551;1257;72413;-40
2023/11/17 11:48:37;;;;;;;8.00;2.80;;;;;;;20.37;54.12;97490.55;105727;1257;61235;-42
2023/11/17 11:51:08;;;;;;;5.90;2.80;;;;;;;20.37;53.95;97486.96;105577;1257;61161;-42
2023/11/17 11:53:38;;;;;;;9.60;2.90;;;;;;;20.37;54.15;97483.77;105725;1257;74528;-41
2023/11/17 11:56:14;;;;;;;5.90;2.50;;;;;;;20.37;54.25;97484.56;105493;1257;66249;-43
2023/11/17 11:58:42;;;;;;;4.60;2.40;;;;;;;20.38;54.24;97481.23;105575;1254;72571;-41
2023/11/17 12:01:10;;;;;;;5.70;3.10;;;;;;;20.38;54.30;97479.29;105627;1259;61289;-42
2023/11/17 12:03:36;;;;;;;4.10;2.50;;;;;;;20.39;54.46;97475.19;105507;1254;61403;-43
2023/11/17 12:06:04;;;;;;;6.50;2.70;;;;;;;20.39;54.40;97482.02;105525;1254;75313;-42
2023/11/17 12:08:31;;;;;;;3.20;2.60;;;;;;;20.39;54.57;97475.66;105725;1256;66378;-41
2023/11/17 12:11:10;;;;;;;3.00;2.50;;;;;;;20.39;54.49;97475.66;105752;1253;73307;-43
2023/11/17 12:13:41;;;;;;;4.30;2.70;;;;;;;20.39;54.65;97476.05;105682;1254;61374;-42
2023/11/17 12:16:35;;;;;;;4.30;2.50;;;;;;;20.39;54.82;97476.75;105627;1259;61221;-42
2023/11/17 12:19:03;;;;;;;2.80;2.50;;;;;;;20.40;54.89;97478.84;105369;1254;75359;-42
2023/11/17 12:21:38;;;;;;;2.90;2.40;;;;;;;20.40;54.83;97475.75;105742;1253;66973;-42
2023/11/17 12:24:05;;;;;;;4.00;2.60;;;;;;;20.40;54.92;97476.92;105629;1254;73079;-44
2023/11/17 12:26:32;;;;;;;3.90;2.10;;;;;;;20.41;54.92;97480.50;105481;1259;61244;-43
2023/11/17 12:29:00;;;;;;;4.40;2.50;;;;;;;20.41;55.06;97477.09;105466;1254;61346;-42
2023/11/17 12:31:27;;;;;;;4.00;2.60;;;;;;;20.41;55.15;97472.02;105571;1257;74863;-44
2023/11/17 12:33:54;;;;;;;4.10;2.50;;;;;;;20.42;55.05;97472.20;105693;1259;66534;-44
2023/11/17 12:36:22;;;;;;;3.70;2.40;;;;;;;20.42;55.02;97469.55;107619;1254;72351;-43
2023/11/17 12:38:55;;;;;;;4.30;2.60;;;;;;;20.43;55.18;97465.77;105549;1257;61240;-44
2023/11/17 12:41:23;;;;;;;5.10;2.50;;;;;;;20.43;55.25;97460.65;105574;1256;61215;-44
2023/11/17 12:43:55;;;;;;;4.40;2.10;;;;;;;20.44;55.12;97461.11;105556;1254;75742;-42
2023/11/17 12:46:25;;;;;;;3.70;2.50;;;;;;;20.44;55.23;97457.48;105635;1257;65801;-41
2023/11/17 12:48:52;;;;;;;3.80;1.80;;;;;;;20.45;55.22;97458.73;105714;1257;73433;-44
2023/11/17 12:51:29;;;;;;;2.60;2.10;;;;;;;20.45;55.28;97453.28;105697;1256;61342;-43
2023/11/17 12:54:00;;;;;;;3.60;2.30;;;;;;;20.46;55.43;97450.73;105604;1254;63137;-44
2023/11/17 12:56:27;;;;;;;4.30;2.30;;;;;;;20.49;55.38;97453.88;105416;1254;75687;-43
2023/11/17 12:58:54;;;;;;;4.10;2.50;;;;;;;20.52;55.59;97450.83;105572;1257;65874;-42
2023/11/17 13:01:22;;;;;;;4.60;2.30;;;;;;;20.57;55.81;97449.48;105610;1254;73740;-43
2023/11/17 13:03:53;;;;;;;3.30;2.50;;;;;;;20.62;56.14;97448.77;105672;1257;61365;-43
2023/11/17 13:06:24;;;;;;;3.90;2.60;;;;;;;20.66;56.32;97444.86;105683;1254;61329;-43
2023/11/17 13:08:50;;;;;;;2.70;2.30;;;;;;;20.70;56.35;97441.51;105725;1255;74375;-42
2023/11/17 13:11:17;;;;;;;3.40;2.40;;;;;;;20.74;56.29;97439.60;105738;1257;65928;-42
2023/11/17 13:13:45;;;;;;;6.00;2.60;;;;;;;20.76;56.18;97439.48;105607;1254;73518;-41
2023/11/17 13:16:18;;;;;;;3.10;2.30;;;;;;;20.78;56.01;97434.75;105607;1258;61288;-41
2023/11/17 13:18:45;;;;;;;3.90;2.30;;;;;;;20.80;55.91;97434.41;105761;1256;61227;-41
2023/11/17 13:21:13;;;;;;;3.10;1.90;;;;;;;20.82;55.69;97434.89;105687;1254;74460;-42
2023/11/17 13:23:44;;;;;;;2.90;2.20;;;;;;;20.83;55.62;97435.83;105655;1254;66386;-40
2023/11/17 13:26:23;;;;;;;2.40;1.90;;;;;;;20.83;55.47;97435.60;105598;1254;72750;-40
2023/11/17 13:28:50;;;;;;;2.80;2.20;;;;;;;20.84;55.31;97436.64;105572;1256;61230;-41
2023/11/17 13:31:23;;;;;;;2.70;2.20;;;;;;;20.84;55.17;97435.61;105611;1254;61865;-43
2023/11/17 13:33:54;;;;;;;2.70;2.40;;;;;;;20.84;55.06;97440.98;105630;1254;74940;-43
2023/11/17 13:36:23;;;;;;;2.40;2.20;;;;;;;20.84;55.01;97445.80;105640;1257;66066;-41
2023/11/17 13:41:39;;;;;;;3.40;2.40;;;;;;;20.84;54.85;97451.09;105606;1257;61304;-44
2023/11/17 13:44:07;;;;;;;2.80;2.20;;;;;;;20.83;54.80;97451.69;105599;1254;61298;-43
2023/11/17 13:46:52;;;;;;;5.70;2.30;;;;;;;20.82;54.31;97456.98;105666;1254;75156;-43
2023/11/17 13:49:19;;;;;;;4.30;2.40;;;;;;;20.81;54.09;97456.73;105644;1257;65969;-43
2023/11/17 13:51:57;;;;;;;2.80;1.90;;;;;;;20.80;54.08;97455.69;105547;1254;73535;-43
2023/11/17 13:54:30;;;;;;;4.10;2.10;;;;;;;20.79;54.14;97458.80;105385;1259;61284;-44
2023/11/17 13:56:57;;;;;;;5.10;2.20;;;;;;;20.79;54.08;97457.17;105577;1254;61323;-46
2023/11/17 13:59:26;;;;;;;3.40;2.20;;;;;;;20.79;54.29;97456.86;105552;1256;75529;-44
2023/11/17 14:01:57;;;;;;;4.00;2.40;;;;;;;20.79;54.22;97453.35;105574;1254;65581;-44
2023/11/17 14:04:32;;;;;;;2.50;2.10;;;;;;;20.79;54.32;97458.04;105660;1254;73604;-42
2023/11/17 14:06:59;;;;;;;2.80;2.10;;;;;;;20.79;54.41;97459.81;105649;1257;61301;-43
2023/11/17 14:09:26;;;;;;;2.90;1.90;;;;;;;20.78;54.29;97457.54;105650;1257;61246;-42
2023/11/17 14:11:54;;;;;;;3.70;2.40;;;;;;;20.78;54.39;97452.41;105622;1254;75133;-43
2023/11/17 14:14:21;;;;;;;4.20;2.30;;;;;;;20.78;54.35;97452.72;105645;1257;66040;-43
2023/11/17 14:16:52;;;;;;;3.10;2.30;;;;;;;20.77;54.54;97455.20;105620;1254;72418;-43
2023/11/17 14:19:19;;;;;;;4.90;2.10;;;;;;;20.78;54.44;97455.83;105680;1257;61265;-43
2023/11/17 14:21:46;;;;;;;2.80;2.20;;;;;;;20.77;54.37;97463.05;105794;1254;61333;-43
2023/11/17 14:24:17;;;;;;;3.80;1.80;;;;;;;20.77;54.53;97458.93;105629;1257;75553;-43
2023/11/17 14:26:44;;;;;;;4.40;2.30;;;;;;;20.76;54.64;97465.22;105605;1257;67371;-43
2023/11/17 14:29:12;;;;;;;2.20;2.00;;;;;;;20.76;54.57;97467.62;105687;1254;72290;-43
2023/11/17 14:31:45;;;;;;;6.10;1.80;;;;;;;20.75;54.61;97468.16;105624;1259;61126;-42
2023/11/17 14:34:21;;;;;;;3.40;2.30;;;;;;;20.75;54.63;97467.23;105806;1254;61205;-42
2023/11/17 14:36:49;;;;;;;2.40;2.20;;;;;;;20.74;54.57;97466.13;105643;1259;75460;-43
2023/11/17 14:39:16;;;;;;;2.30;1.90;;;;;;;20.74;54.47;97469.62;105700;1257;67423;-42
2023/11/17 14:41:43;;;;;;;2.50;2.00;;;;;;;20.73;54.66;97468.83;105540;1254;73570;-44
2023/11/17 14:44:11;;;;;;;5.10;2.20;;;;;;;20.72;54.73;97469.60;105808;1259;61225;-41
2023/11/17 14:46:40;;;;;;;2.60;1.90;;;;;;;20.72;54.68;97472.55;105592;1257;61339;-41
2023/11/17 14:49:08;;;;;;;3.00;2.00;;;;;;;20.72;54.55;97475.89;105808;1256;74607;-42
2023/11/17 14:51:35;;;;;;;3.00;2.30;;;;;;;20.71;54.49;97479.83;105849;1257;66106;-41
2023/11/17 14:54:01;;;;;;;4.00;2.30;;;;;;;20.70;54.38;97478.11;105766;1257;73490;-41
2023/11/17 14:56:28;;;;;;;2.20;2.00;;;;;;;20.68;54.39;97481.52;105504;1259;61276;-41
2023/11/17 14:58:58;;;;;;;4.30;2.40;;;;;;;20.67;54.49;97479.16;105701;1254;61272;-41
2023/11/17 15:01:27;;;;;;;2.80;1.90;;;;;;;20.66;54.32;97480.54;105776;1258;75295;-42
2023/11/17 15:03:58;;;;;;;2.90;2.00;;;;;;;20.64;54.32;97481.29;105862;1254;67322;-42
2023/11/17 15:06:25;;;;;;;2.40;1.80;;;;;;;20.63;54.32;97483.61;105708;1259;72291;-41
2023/11/17 15:08:55;;;;;;;2.60;1.90;;;;;;;20.60;54.41;97481.80;105666;1259;61321;-41
2023/11/17 15:11:23;;;;;;;3.20;2.10;;;;;;;20.59;54.26;97484.57;105826;1254;61158;-41
2023/11/17 15:13:51;;;;;;;3.00;1.90;;;;;;;20.58;54.32;97488.67;105735;1259;75330;-41
2023/11/17 15:16:22;;;;;;;2.90;2.00;;;;;;;20.56;54.29;97485.83;105716;1257;65223;-41
2023/11/17 15:18:50;;;;;;;5.40;2.00;;;;;;;20.54;54.21;97492.65;105784;1254;72638;-41
2023/11/17 15:21:21;;;;;;;2.80;2.00;;;;;;;20.52;54.12;97492.00;105529;1254;61360;-41
2023/11/17 15:23:54;;;;;;;3.40;2.00;;;;;;;20.51;54.19;97493.38;105420;1261;61794;-41
2023/11/17 15:26:21;;;;;;;2.10;1.90;;;;;;;20.48;54.15;97495.22;105836;1259;74667;-41
2023/11/17 15:28:52;;;;;;;2.30;2.00;;;;;;;20.47;54.25;97498.15;105907;1256;65945;-42
2023/11/17 15:31:23;;;;;;;2.10;1.90;;;;;;;20.45;54.40;97500.23;105708;1254;72624;-42
2023/11/17 15:33:50;;;;;;;3.30;1.90;;;;;;;20.43;54.15;97508.52;105659;1259;61240;-42
2023/11/17 15:36:18;;;;;;;2.60;2.20;;;;;;;20.41;54.30;97505.14;105762;1253;61330;-42
2023/11/17 15:38:46;;;;;;;3.90;1.90;;;;;;;20.40;54.22;97510.25;105843;1254;74592;-40
2023/11/17 15:41:14;;;;;;;2.40;1.70;;;;;;;20.40;54.17;97513.05;105746;1258;66114;-40
2023/11/17 15:43:43;;;;;;;2.60;2.20;;;;;;;20.38;54.23;97513.80;105783;1254;73218;-40
2023/11/17 15:46:17;;;;;;;2.50;1.90;;;;;;;20.36;54.25;97515.09;105713;1256;61237;-41
2023/11/17 15:48:44;;;;;;;2.30;1.80;;;;;;;20.35;54.29;97516.23;105722;1259;61230;-41
2023/11/17 15:51:10;;;;;;;2.70;1.90;;;;;;;20.33;54.24;97517.45;105626;1257;74677;-41
2023/11/17 15:53:38;;;;;;;3.20;2.10;;;;;;;20.32;54.25;97520.79;105653;1256;67027;-41
2023/11/17 15:56:07;;;;;;;3.80;2.20;;;;;;;20.31;54.24;97526.20;105537;1254;73671;-41
2023/11/17 15:58:33;;;;;;;4.90;1.80;;;;;;;20.29;54.13;97532.54;105732;1257;61297;-42
2023/11/17 16:01:04;;;;;;;2.40;1.80;;;;;;;20.28;54.25;97534.46;105748;1254;61339;-41
2023/11/17 16:03:31;;;;;;;2.00;1.80;;;;;;;20.27;54.13;97534.84;105715;1259;75417;-41
2023/11/17 16:05:58;;;;;;;2.40;1.80;;;;;;;20.26;54.19;97538.46;105687;1257;66777;-41
2023/11/17 16:08:27;;;;;;;3.50;2.10;;;;;;;20.25;54.28;97540.48;105875;1254;72382;-40
2023/11/17 16:10:56;;;;;;;2.30;1.80;;;;;;;20.23;54.25;97539.42;105842;1258;61247;-41
2023/11/17 16:13:23;;;;;;;2.60;1.80;;;;;;;20.22;54.37;97544.39;105866;1254;61403;-40
2023/11/17 16:15:50;;;;;;;4.80;2.00;;;;;;;20.21;54.30;97546.05;105782;1254;74952;-41
2023/11/17 16:18:17;;;;;;;2.20;1.80;;;;;;;20.20;54.20;97544.39;105817;1258;66132;-41
2023/11/17 16:20:44;;;;;;;2.70;1.80;;;;;;;20.18;54.19;97544.60;105516;1254;73522;-41
2023/11/17 16:23:15;;;;;;;3.10;2.00;;;;;;;20.18;54.24;97547.93;105603;1259;61240;-41
2023/11/17 16:25:43;;;;;;;2.50;1.70;;;;;;;20.16;54.10;97549.38;105603;1254;61336;-41
2023/11/17 16:28:11;;;;;;;1.80;1.60;;;;;;;20.15;54.18;97548.11;105571;1258;74306;-41
2023/11/17 16:30:40;;;;;;;1.90;1.70;;;;;;;20.14;54.25;97547.31;105481;1258;66200;-41
2023/11/17 16:33:07;;;;;;;2.90;1.90;;;;;;;20.13;54.22;97547.92;105539;1259;72570;-41
2023/11/17 16:35:34;;;;;;;3.00;2.00;;;;;;;20.12;54.31;97548.52;105492;1257;61235;-40
2023/11/17 16:38:04;;;;;;;3.00;1.80;;;;;;;20.11;54.32;97546.03;105550;1254;61352;-43
2023/11/17 16:40:33;;;;;;;2.50;1.80;;;;;;;20.10;54.26;97550.36;105535;1258;75438;-42
2023/11/17 16:43:01;;;;;;;2.50;1.90;;;;;;;20.09;54.40;97549.02;105561;1257;66029;-41
2023/11/17 16:45:29;;;;;;;2.10;1.70;;;;;;;20.08;54.29;97548.08;105515;1254;73286;-41
2023/11/17 16:47:56;;;;;;;2.20;1.70;;;;;;;20.07;54.28;97553.88;105853;1259;61231;-41
2023/11/17 16:50:24;;;;;;;1.80;1.70;;;;;;;20.06;54.24;97554.64;105816;1254;61343;-41
2023/11/17 16:52:54;;;;;;;2.00;1.80;;;;;;;20.05;54.32;97555.79;105646;1256;74399;-42
2023/11/17 16:55:22;;;;;;;2.00;1.80;;;;;;;20.04;54.24;97554.15;105486;1257;64976;-41
2023/11/17 16:57:51;;;;;;;2.40;1.80;;;;;;;20.03;54.34;97552.73;105800;1254;72456;-41
2023/11/17 17:00:22;;;;;;;3.30;1.90;;;;;;;20.02;54.38;97554.88;105681;1257;61238;-41
2023/11/17 17:02:51;;;;;;;2.10;1.70;;;;;;;20.02;54.35;97554.25;105823;1254;61248;-41
2023/11/17 17:05:18;;;;;;;2.60;1.70;;;;;;;20.00;54.35;97554.61;105550;1258;74392;-41
2023/11/17 17:07:46;;;;;;;1.90;1.70;;;;;;;20.00;54.29;97553.52;105581;1257;66343;-41
2023/11/17 17:10:18;;;;;;;2.80;1.60;;;;;;;19.99;54.21;97550.55;105638;1259;72355;-41
2023/11/17 17:12:45;;;;;;;1.80;1.60;;;;;;;19.97;54.39;97551.14;105626;1259;61675;-41
2023/11/17 17:15:14;;;;;;;2.30;1.90;;;;;;;19.97;54.23;97550.75;105440;1259;61324;-41
2023/11/17 17:17:42;;;;;;;2.70;1.80;;;;;;;19.96;54.27;97546.99;105784;1254;75469;-41
2023/11/17 17:20:12;;;;;;;1.80;1.70;;;;;;;19.95;54.28;97548.92;105789;1258;65536;-41
2023/11/17 17:22:42;;;;;;;2.20;1.80;;;;;;;19.94;54.39;97551.40;105813;1254;73139;-41
2023/11/17 17:25:09;;;;;;;2.50;1.60;;;;;;;19.93;54.36;97550.30;105696;1260;61257;-41
2023/11/17 17:27:37;;;;;;;2.50;1.80;;;;;;;19.92;54.35;97551.60;105680;1254;61291;-41
2023/11/17 17:30:05;;;;;;;3.90;1.70;;;;;;;19.91;54.41;97556.77;105888;1257;75500;-41
2023/11/17 17:32:32;;;;;;;2.60;1.90;;;;;;;19.91;54.45;97558.86;106016;1259;64888;-41
2023/11/17 17:35:04;;;;;;;3.50;1.60;;;;;;;19.90;54.45;97556.77;105795;1254;72378;-41
2023/11/17 17:37:31;;;;;;;1.90;1.80;;;;;;;19.89;54.29;97555.42;105723;1259;61193;-41
2023/11/17 17:39:59;;;;;;;3.60;1.60;;;;;;;19.89;54.41;97557.58;105646;1254;61422;-41
2023/11/17 17:42:26;;;;;;;2.00;1.80;;;;;;;19.88;54.34;97556.34;106150;1255;74545;-41
2023/11/17 17:44:53;;;;;;;1.80;1.50;;;;;;;19.87;54.32;97557.40;105850;1259;65879;-41
2023/11/17 17:47:20;;;;;;;1.90;1.50;;;;;;;19.87;54.41;97561.98;106339;1257;61269;-41
2023/11/17 17:49:47;;;;;;;2.10;1.70;;;;;;;19.86;54.32;97560.40;105650;1257;61298;-43
2023/11/17 17:52:14;;;;;;;3.10;1.60;;;;;;;19.86;54.47;97559.55;105658;1255;61349;-42
2023/11/17 17:54:40;;;;;;;2.60;1.70;;;;;;;19.85;54.40;97560.94;105640;1254;74504;-42
2023/11/17 17:57:07;;;;;;;1.70;1.60;;;;;;;19.84;54.32;97561.93;105817;1256;66533;-41
2023/11/17 17:59:34;;;;;;;2.20;1.80;;;;;;;19.84;54.25;97560.05;105899;1260;73469;-40
2023/11/17 18:02:01;;;;;;;1.80;1.70;;;;;;;19.82;54.39;97563.06;105702;1260;61326;-40
2023/11/17 18:04:28;;;;;;;1.60;1.50;;;;;;;19.82;54.34;97567.95;105715;1255;61241;-41
2023/11/17 18:06:55;;;;;;;3.10;1.70;;;;;;;19.81;54.32;97566.52;105672;1259;74301;-42
2023/11/17 18:09:22;;;;;;;1.80;1.60;;;;;;;19.82;54.32;97569.95;105846;1260;66984;-41
2023/11/17 18:11:48;;;;;;;2.20;1.80;;;;;;;19.80;54.38;97568.08;105853;1254;72409;-41
2023/11/17 18:14:15;;;;;;;1.70;1.50;;;;;;;19.79;54.47;97568.12;105576;1259;61238;-41
2023/11/17 18:16:42;;;;;;;1.80;1.60;;;;;;;19.79;54.44;97572.92;105871;1254;61336;-41
2023/11/17 18:19:12;;;;;;;1.60;1.50;;;;;;;19.78;54.47;97570.60;105820;1259;75154;-41
2023/11/17 18:21:38;;;;;;;1.80;1.70;;;;;;;19.78;54.36;97570.98;105596;1254;66226;-41
2023/11/17 18:24:06;;;;;;;4.50;2.00;;;;;;;19.77;54.47;97570.52;105527;1254;61365;-41
2023/11/17 18:26:32;;;;;;;3.10;1.70;;;;;;;19.77;54.26;97572.82;105590;1260;61362;-41
2023/11/17 18:29:11;;;;;;;2.20;1.60;;;;;;;19.76;54.32;97573.02;105539;1257;61151;-41
2023/11/17 18:31:37;;;;;;;2.40;1.80;;;;;;;19.76;54.34;97570.55;105680;1254;74609;-41
2023/11/17 18:34:04;;;;;;;1.90;1.50;;;;;;;19.75;54.38;97569.59;105495;1260;66032;-41